createdAt,value
2019-05-10T00:00:05.170Z,76.15
2019-05-10T00:05:27.594Z,90.80
2019-05-10T00:10:30.565Z,80.20
2019-05-10T00:15:35.690Z,82.17
2019-05-10T00:20:39.185Z,88.47
2019-05-10T00:25:42.510Z,80.87
2019-05-10T00:30:46.660Z,84.72
2019-05-10T00:35:50.270Z,84.37
2019-05-10T00:40:53.989Z,81.05
2019-05-10T00:45:58.208Z,79.85
2019-05-10T00:51:01.603Z,89.28
2019-05-10T00:56:04.929Z,85.00
2019-05-10T01:01:08.465Z,91.50
2019-05-10T01:06:12.098Z,90.55
2019-05-10T01:11:16.436Z,88.33
2019-05-10T01:16:20.371Z,89.97
2019-05-10T01:21:23.705Z,86.63
2019-05-10T01:26:27.493Z,90.42
2019-05-10T01:31:30.835Z,87.17
2019-05-10T01:36:34.210Z,87.55
2019-05-10T01:41:37.886Z,95.28
2019-05-10T01:46:41.331Z,93.10
2019-05-10T01:51:44.964Z,90.25
2019-05-10T01:56:49.383Z,93.10
2019-05-10T02:01:53.712Z,96.75
2019-05-10T02:06:57.285Z,99.22
2019-05-10T02:12:00.646Z,100.53
2019-05-10T02:17:04.159Z,98.92
2019-05-10T02:22:07.876Z,105.40
2019-05-10T02:27:11.588Z,104.87
2019-05-10T02:32:15.269Z,103.30
2019-05-10T02:37:18.731Z,107.27
2019-05-10T02:42:22.215Z,113.55
2019-05-10T02:47:26.018Z,109.05
2019-05-10T02:52:30.358Z,101.12
2019-05-10T02:57:35.709Z,102.53
2019-05-10T03:02:39.979Z,102.15
2019-05-10T03:07:46.797Z,116.60
2019-05-10T03:12:53.481Z,111.65
2019-05-10T03:18:02.842Z,100.65
2019-05-10T03:23:09.635Z,98.40
2019-05-10T03:28:12.959Z,104.53
2019-05-10T03:33:16.589Z,102.82
2019-05-10T03:38:20.522Z,94.65
2019-05-10T03:43:24.154Z,97.33
2019-05-10T03:48:27.881Z,97.53
2019-05-10T03:53:31.387Z,93.05
2019-05-10T03:58:34.888Z,92.25
2019-05-10T04:03:38.257Z,95.70
2019-05-10T04:08:43.935Z,99.22
2019-05-10T04:13:47.517Z,85.20
2019-05-10T04:18:51.298Z,88.07
2019-05-10T04:23:55.274Z,81.15
2019-05-10T04:29:00.700Z,75.30
2019-05-10T04:34:04.457Z,83.42
2019-05-10T04:39:07.771Z,79.32
2019-05-10T04:44:11.613Z,79.27
2019-05-10T04:49:14.859Z,68.80
2019-05-10T04:54:18.596Z,67.45
2019-05-10T04:59:22.332Z,73.47
2019-05-10T05:04:25.659Z,75.67
2019-05-10T05:09:29.323Z,67.82
2019-05-10T05:14:33.135Z,66.57
2019-05-10T05:19:36.520Z,64.55
2019-05-10T05:24:39.911Z,69.77
2019-05-10T05:29:45.318Z,63.50
2019-05-10T05:34:48.676Z,58.00
2019-05-10T05:39:52.100Z,53.10
2019-05-10T05:44:55.884Z,58.52
2019-05-10T05:49:59.337Z,57.38
2019-05-10T05:55:03.884Z,55.90
2019-05-10T06:00:07.590Z,57.83
2019-05-10T06:05:11.343Z,58.23
2019-05-10T06:10:19.839Z,59.30
2019-05-10T06:15:23.192Z,55.75
2019-05-10T06:20:26.264Z,58.07
2019-05-10T06:25:39.706Z,58.60
2019-05-10T06:30:35.449Z,61.23
2019-05-10T06:35:38.854Z,59.80
2019-05-10T06:40:47.326Z,62.70
2019-05-10T06:45:52.319Z,64.50
2019-05-10T06:50:54.588Z,63.08
2019-05-10T06:56:17.437Z,61.05
2019-05-10T07:01:20.908Z,54.55
2019-05-10T07:06:24.363Z,52.03
2019-05-10T07:11:27.918Z,52.35
2019-05-10T07:16:31.259Z,49.75
2019-05-10T07:21:38.959Z,50.38
2019-05-10T07:26:40.298Z,44.83
2019-05-10T07:31:43.758Z,42.65
2019-05-10T07:36:47.419Z,43.83
2019-05-10T07:41:51.252Z,40.50
2019-05-10T07:46:58.336Z,44.25
2019-05-10T07:52:02.217Z,35.20
2019-05-10T07:57:05.770Z,30.97
2019-05-10T08:02:14.747Z,35.88
2019-05-10T08:07:18.642Z,35.73
2019-05-10T08:12:22.904Z,37.67
2019-05-10T08:17:28.704Z,27.55
2019-05-10T08:22:40.499Z,30.23
2019-05-10T08:27:44.054Z,33.83
2019-05-10T08:32:43.054Z,30.70
2019-05-10T08:37:46.890Z,28.95
2019-05-10T08:43:03.113Z,29.85
2019-05-10T08:48:00.862Z,36.17
2019-05-10T08:53:10.570Z,29.80
2019-05-10T08:58:07.613Z,29.67
2019-05-10T09:03:18.284Z,25.25
2019-05-10T09:08:20.011Z,27.52
2019-05-10T09:13:28.856Z,26.30
2019-05-10T09:18:29.185Z,25.83
2019-05-10T09:23:32.754Z,26.65
2019-05-10T09:28:37.148Z,21.25
2019-05-10T09:33:49.188Z,23.02
2019-05-10T09:38:46.971Z,17.50
2019-05-10T09:43:53.614Z,19.70
2019-05-10T09:49:06.033Z,19.27
2019-05-10T09:54:01.949Z,18.10
2019-05-10T09:59:05.256Z,18.25
2019-05-10T10:04:09.378Z,17.85
2019-05-10T10:09:13.829Z,14.63
2019-05-10T10:14:18.075Z,18.30
2019-05-10T10:19:24.359Z,16.30
2019-05-10T10:24:28.486Z,14.43
2019-05-10T10:29:34.096Z,9.38
2019-05-10T10:34:42.865Z,10.90
2019-05-10T10:39:43.346Z,10.40
2019-05-10T10:44:48.468Z,7.15
2019-05-10T10:49:52.174Z,9.88
2019-05-10T10:54:57.681Z,8.63
2019-05-10T11:00:01.248Z,5.47
2019-05-10T11:05:05.222Z,5.58
2019-05-10T11:10:16.093Z,8.95
2019-05-10T11:15:16.481Z,5.28
2019-05-10T11:20:21.692Z,6.60
2019-05-10T11:25:26.341Z,5.53
2019-05-10T11:30:32.467Z,8.75
2019-05-10T11:35:35.673Z,7.30
2019-05-10T11:40:41.889Z,8.18
2019-05-10T11:45:46.714Z,4.55
2019-05-10T11:50:51.347Z,5.35
2019-05-10T11:55:55.501Z,5.03
2019-05-10T12:01:02.383Z,8.15
2019-05-10T12:16:16.841Z,7.37
2019-05-10T12:21:21.847Z,6.20
2019-05-10T12:26:27.550Z,5.72
2019-05-10T12:31:31.268Z,3.07
2019-05-10T12:36:34.685Z,6.45
2019-05-10T12:41:39.671Z,3.55
2019-05-10T12:46:43.589Z,8.73
2019-05-10T12:51:48.577Z,5.83
2019-05-10T12:56:53.132Z,6.83
2019-05-10T13:01:58.305Z,5.72
2019-05-10T13:07:01.842Z,4.47
2019-05-10T13:12:06.302Z,3.83
2019-05-10T13:17:12.363Z,4.70
2019-05-10T13:22:16.042Z,5.03
2019-05-10T13:27:19.627Z,4.62
2019-05-10T13:32:22.963Z,5.70
2019-05-10T13:37:29.491Z,3.17
2019-05-10T13:42:36.483Z,2.12
2019-05-10T13:47:38.296Z,6.00
2019-05-10T13:52:42.022Z,4.47
2019-05-10T13:57:45.349Z,3.45
2019-05-10T14:02:49.011Z,4.28
2019-05-10T14:07:53.337Z,4.40
2019-05-10T14:13:02.323Z,4.30
2019-05-10T14:23:06.519Z,4.35
2019-05-10T14:28:15.449Z,3.87
2019-05-10T14:33:17.286Z,3.83
2019-05-10T14:38:22.968Z,4.08
2019-05-10T14:43:26.313Z,6.35
2019-05-10T14:48:35.120Z,3.67
2019-05-10T14:53:35.013Z,2.67
2019-05-10T14:58:38.435Z,3.70
2019-05-10T15:03:45.742Z,6.92
2019-05-10T15:08:50.734Z,2.27
2019-05-10T15:13:54.213Z,7.22
2019-05-10T15:18:58.646Z,3.05
2019-05-10T15:24:03.099Z,2.47
2019-05-10T15:29:06.634Z,4.00
2019-05-10T15:34:10.617Z,3.25
2019-05-10T15:39:14.370Z,2.75
2019-05-10T15:44:19.163Z,4.75
2019-05-10T15:49:24.436Z,4.33
2019-05-10T15:54:28.701Z,2.60
2019-05-10T15:59:32.849Z,4.20
2019-05-10T16:04:37.147Z,4.50
2019-05-10T16:09:40.402Z,7.95
2019-05-10T16:14:45.766Z,10.28
2019-05-10T16:19:50.937Z,5.40
2019-05-10T16:25:00.902Z,6.17
2019-05-10T16:30:01.026Z,8.33
2019-05-10T16:35:12.389Z,8.70
2019-05-10T16:40:14.110Z,10.65
2019-05-10T16:45:18.309Z,12.85
2019-05-10T16:50:25.898Z,10.50
2019-05-10T16:55:27.305Z,11.83
2019-05-10T17:00:31.071Z,21.97
2019-05-10T17:05:34.580Z,14.93
2019-05-10T17:10:39.753Z,15.83
2019-05-10T17:15:44.110Z,14.97
2019-05-10T17:20:51.003Z,13.38
2019-05-10T17:25:53.705Z,14.20
2019-05-10T17:30:59.969Z,17.27
2019-05-10T17:36:08.485Z,19.92
2019-05-10T17:41:11.991Z,15.15
2019-05-10T17:46:18.747Z,12.33
2019-05-10T17:51:21.206Z,12.55
2019-05-10T17:56:24.949Z,11.45
2019-05-10T18:01:28.711Z,8.75
2019-05-10T18:06:32.047Z,10.98
2019-05-10T18:11:36.879Z,15.00
2019-05-10T18:16:48.258Z,14.77
2019-05-10T18:21:48.801Z,15.88
2019-05-10T18:26:52.311Z,14.73
2019-05-10T18:31:58.368Z,16.05
2019-05-10T18:37:01.435Z,18.27
2019-05-10T18:42:05.171Z,19.82
2019-05-10T18:47:08.690Z,20.95
2019-05-10T18:52:12.115Z,22.45
2019-05-10T18:57:19.741Z,21.33
2019-05-10T19:07:29.141Z,21.37
2019-05-10T19:12:33.167Z,23.57
2019-05-10T19:17:40.407Z,34.18
2019-05-10T19:22:43.103Z,27.42
2019-05-10T19:27:50.796Z,27.10
2019-05-10T19:32:56.295Z,25.37
2019-05-10T19:37:59.183Z,28.53
2019-05-10T19:43:04.661Z,25.95
2019-05-10T19:48:08.197Z,28.95
2019-05-10T19:53:11.900Z,30.48
2019-05-10T19:58:15.316Z,31.23
2019-05-10T20:03:19.176Z,38.00
2019-05-10T20:08:22.629Z,34.50
2019-05-10T20:13:26.496Z,37.33
2019-05-10T20:18:32.797Z,33.23
2019-05-10T20:23:36.194Z,34.50
2019-05-10T20:28:39.679Z,32.80
2019-05-10T20:33:43.175Z,31.33
2019-05-10T20:38:47.056Z,28.25
2019-05-10T20:43:51.419Z,26.68
2019-05-10T20:48:55.129Z,23.73
2019-05-10T20:53:58.465Z,24.75
2019-05-10T20:59:02.838Z,24.00
2019-05-10T21:04:06.319Z,25.43
2019-05-10T21:09:09.696Z,24.40
2019-05-10T21:14:13.176Z,27.32
2019-05-10T21:19:20.089Z,27.02
2019-05-10T21:24:23.714Z,25.95
2019-05-10T21:29:27.085Z,25.95
2019-05-10T21:34:31.444Z,27.87
2019-05-10T21:39:34.734Z,28.15
2019-05-10T21:44:38.373Z,28.95
2019-05-10T21:49:41.668Z,25.12
2019-05-10T21:54:45.555Z,26.85
2019-05-10T21:59:49.469Z,29.00
2019-05-10T22:04:54.063Z,30.77
2019-05-10T22:09:57.942Z,26.62
2019-05-10T22:15:01.256Z,29.92
2019-05-10T22:20:05.565Z,32.03
2019-05-10T22:25:09.128Z,31.85
2019-05-10T22:30:12.844Z,32.70
2019-05-10T22:35:16.350Z,34.20
2019-05-10T22:40:19.670Z,35.83
2019-05-10T22:45:23.101Z,33.08
2019-05-10T22:50:26.439Z,35.28
2019-05-10T22:55:29.871Z,33.15
2019-05-10T23:00:33.154Z,31.23
2019-05-10T23:05:36.721Z,31.77
2019-05-10T23:10:40.550Z,34.48
2019-05-10T23:15:43.916Z,32.05
2019-05-10T23:20:47.473Z,30.75
2019-05-10T23:25:51.678Z,34.38
2019-05-10T23:30:56.885Z,33.45
2019-05-10T23:36:00.198Z,31.40
2019-05-10T23:41:03.503Z,34.43
2019-05-10T23:46:07.228Z,35.65
2019-05-10T23:51:11.031Z,35.48
2019-05-10T23:56:14.465Z,34.45
